createdAt,value
2019-02-15T00:01:29.092Z,2.00
2019-02-15T00:03:56.434Z,2.00
2019-02-15T00:06:24.043Z,1.90
2019-02-15T00:08:51.460Z,1.90
2019-02-15T00:11:19.263Z,2.00
2019-02-15T00:13:46.863Z,1.80
2019-02-15T00:16:14.589Z,1.70
2019-02-15T00:18:51.189Z,1.70
2019-02-15T00:21:25.587Z,1.80
2019-02-15T00:23:53.316Z,1.80
2019-02-15T00:26:21.114Z,1.80
2019-02-15T00:28:48.872Z,1.70
2019-02-15T00:31:19.410Z,1.70
2019-02-15T00:33:47.164Z,1.70
2019-02-15T00:36:14.521Z,1.60
2019-02-15T00:38:42.692Z,1.60
2019-02-15T00:41:11.470Z,1.50
2019-02-15T00:43:39.145Z,1.60
2019-02-15T00:46:20.386Z,1.60
2019-02-15T00:48:48.077Z,1.70
2019-02-15T00:51:47.218Z,1.70
2019-02-15T00:54:34.573Z,1.70
2019-02-15T00:57:20.480Z,1.50
2019-02-15T01:00:19.792Z,1.50
2019-02-15T01:03:15.822Z,1.50
2019-02-15T01:06:14.855Z,1.50
2019-02-15T01:08:55.614Z,1.40
2019-02-15T01:11:33.143Z,1.40
2019-02-15T01:14:00.475Z,1.40
2019-02-15T01:16:27.862Z,1.30
2019-02-15T01:18:55.417Z,1.40
2019-02-15T01:21:22.898Z,1.40
2019-02-15T01:23:50.350Z,1.30
2019-02-15T01:26:34.565Z,1.50
2019-02-15T01:29:22.885Z,1.60
2019-02-15T01:32:12.748Z,1.70
2019-02-15T01:35:06.092Z,1.80
2019-02-15T01:37:40.076Z,1.90
2019-02-15T01:40:27.118Z,1.70
2019-02-15T01:43:19.698Z,1.50
2019-02-15T01:45:53.452Z,1.50
2019-02-15T01:48:20.982Z,1.40
2019-02-15T01:50:48.743Z,1.30
2019-02-15T01:53:16.454Z,1.20
2019-02-15T01:55:44.264Z,1.30
2019-02-15T01:58:11.689Z,1.30
2019-02-15T02:00:39.260Z,1.40
2019-02-15T02:03:06.636Z,1.30
2019-02-15T02:05:34.466Z,1.30
2019-02-15T02:08:02.400Z,1.30
2019-02-15T02:10:30.209Z,1.20
2019-02-15T02:12:57.831Z,1.30
2019-02-15T02:15:25.143Z,1.30
2019-02-15T02:17:52.650Z,1.20
2019-02-15T02:20:20.126Z,1.20
2019-02-15T02:22:47.509Z,1.20
2019-02-15T02:25:15.126Z,1.20
2019-02-15T02:27:42.637Z,1.20
2019-02-15T02:30:10.445Z,1.20
2019-02-15T02:32:37.983Z,1.20
2019-02-15T02:35:05.634Z,1.20
2019-02-15T02:37:33.091Z,1.20
2019-02-15T02:40:00.882Z,1.20
2019-02-15T02:42:28.342Z,1.20
2019-02-15T02:44:56.133Z,1.10
2019-02-15T02:47:24.412Z,0.90
2019-02-15T02:49:52.082Z,1.00
2019-02-15T02:52:19.407Z,1.10
2019-02-15T02:54:46.986Z,1.00
2019-02-15T02:57:14.651Z,0.90
2019-02-15T02:59:42.150Z,0.70
2019-02-15T03:02:09.549Z,0.70
2019-02-15T03:04:37.059Z,0.70
2019-02-15T03:07:04.973Z,0.80
2019-02-15T03:09:33.709Z,0.80
2019-02-15T03:12:01.130Z,0.80
2019-02-15T03:14:28.649Z,0.80
2019-02-15T03:16:56.216Z,0.60
2019-02-15T03:19:23.755Z,0.60
2019-02-15T03:21:51.439Z,0.60
2019-02-15T03:24:19.093Z,0.50
2019-02-15T03:26:46.526Z,0.50
2019-02-15T03:29:14.011Z,0.40
2019-02-15T03:31:41.360Z,0.40
2019-02-15T03:34:08.825Z,0.50
2019-02-15T03:37:02.164Z,0.50
2019-02-15T03:39:49.207Z,0.40
2019-02-15T03:42:16.947Z,0.40
2019-02-15T03:44:44.413Z,0.40
2019-02-15T03:47:13.692Z,0.40
2019-02-15T03:49:41.216Z,0.30
2019-02-15T03:52:08.855Z,0.30
2019-02-15T03:54:36.787Z,0.30
2019-02-15T03:57:04.296Z,0.30
2019-02-15T03:59:31.808Z,0.20
2019-02-15T04:01:59.143Z,0.20
2019-02-15T04:04:26.530Z,0.10
2019-02-15T04:06:54.148Z,0.20
2019-02-15T04:09:21.662Z,0.20
2019-02-15T04:11:49.091Z,0.30
2019-02-15T04:14:16.614Z,0.40
2019-02-15T04:16:43.944Z,0.40
2019-02-15T04:19:11.346Z,0.30
2019-02-15T04:21:38.931Z,0.30
2019-02-15T04:24:06.304Z,0.30
2019-02-15T04:26:33.810Z,0.30
2019-02-15T04:29:01.433Z,0.20
2019-02-15T04:31:29.098Z,0.30
2019-02-15T04:33:56.763Z,0.30
2019-02-15T04:36:24.100Z,0.20
2019-02-15T04:38:51.483Z,0.20
2019-02-15T04:41:18.820Z,0.30
2019-02-15T04:43:46.297Z,0.20
2019-02-15T04:46:13.776Z,0.20
2019-02-15T04:48:41.512Z,0.10
2019-02-15T04:51:09.259Z,0.00
2019-02-15T04:53:36.708Z,-0.10
2019-02-15T04:56:04.515Z,-0.10
2019-02-15T04:58:32.013Z,-0.10
2019-02-15T05:00:59.499Z,-0.20
2019-02-15T05:03:27.014Z,-0.30
2019-02-15T05:05:54.718Z,-0.20
2019-02-15T05:08:22.815Z,-0.10
2019-02-15T05:10:50.670Z,-0.10
2019-02-15T05:13:18.417Z,-0.10
2019-02-15T05:15:46.113Z,0.00
2019-02-15T05:18:13.736Z,0.00
2019-02-15T05:20:41.663Z,0.10
2019-02-15T05:23:10.489Z,0.00
2019-02-15T05:25:38.031Z,0.10
2019-02-15T05:28:05.355Z,0.10
2019-02-15T05:30:32.704Z,0.10
2019-02-15T05:33:00.067Z,0.20
2019-02-15T05:35:28.327Z,0.30
2019-02-15T05:37:55.681Z,0.20
2019-02-15T05:40:23.082Z,0.30
2019-02-15T05:42:50.548Z,0.40
2019-02-15T05:45:18.370Z,0.30
2019-02-15T05:47:46.214Z,0.30
2019-02-15T05:50:14.118Z,0.20
2019-02-15T05:52:41.459Z,0.30
2019-02-15T05:55:08.946Z,0.20
2019-02-15T05:57:36.295Z,0.20
2019-02-15T06:00:04.139Z,0.10
2019-02-15T06:02:31.798Z,0.10
2019-02-15T06:04:59.348Z,0.20
2019-02-15T06:07:27.202Z,0.00
2019-02-15T06:09:54.680Z,-0.10
2019-02-15T06:12:22.175Z,-0.20
2019-02-15T06:14:49.925Z,-0.20
2019-02-15T06:17:18.060Z,-0.10
2019-02-15T06:19:45.434Z,-0.10
2019-02-15T06:22:12.784Z,-0.20
2019-02-15T06:24:40.292Z,-0.10
2019-02-15T06:27:07.945Z,-0.10
2019-02-15T06:29:35.444Z,-0.10
2019-02-15T06:32:02.821Z,0.00
2019-02-15T06:34:30.550Z,-0.10
2019-02-15T06:36:57.916Z,-0.10
2019-02-15T06:39:25.458Z,-0.10
2019-02-15T06:41:53.080Z,0.00
2019-02-15T06:44:20.683Z,0.00
2019-02-15T06:46:48.185Z,0.10
2019-02-15T06:49:15.820Z,-0.10
2019-02-15T06:51:43.190Z,-0.10
2019-02-15T06:54:10.798Z,-0.20
2019-02-15T06:56:38.302Z,-0.30
2019-02-15T06:59:35.325Z,-0.50
2019-02-15T07:02:28.519Z,-0.50
2019-02-15T07:05:16.242Z,-0.50
2019-02-15T07:07:44.090Z,-0.50
2019-02-15T07:10:11.527Z,-0.60
2019-02-15T07:12:39.303Z,-0.60
2019-02-15T07:15:06.835Z,-0.50
2019-02-15T07:17:34.407Z,-0.50
2019-02-15T07:20:01.863Z,-0.50
2019-02-15T07:22:30.305Z,-0.60
2019-02-15T07:24:58.009Z,-0.50
2019-02-15T07:27:25.831Z,-0.60
2019-02-15T07:29:53.177Z,-0.50
2019-02-15T07:32:20.603Z,-0.50
2019-02-15T07:34:48.182Z,-0.50
2019-02-15T07:37:15.574Z,-0.50
2019-02-15T07:39:42.951Z,-0.40
2019-02-15T07:42:10.476Z,-0.30
2019-02-15T07:44:38.200Z,-0.30
2019-02-15T07:47:05.683Z,-0.20
2019-02-15T07:49:33.624Z,-0.10
2019-02-15T07:52:01.089Z,0.00
2019-02-15T07:54:28.624Z,0.00
2019-02-15T07:56:56.562Z,0.10
2019-02-15T07:59:24.055Z,0.20
2019-02-15T08:01:51.526Z,0.20
2019-02-15T08:04:19.023Z,0.20
2019-02-15T08:06:46.563Z,0.30
2019-02-15T08:09:14.398Z,0.40
2019-02-15T08:11:42.043Z,0.40
2019-02-15T08:14:14.867Z,0.50
2019-02-15T08:16:39.756Z,0.50
2019-02-15T08:19:07.232Z,0.50
2019-02-15T08:21:34.894Z,0.60
2019-02-15T08:24:02.420Z,0.60
2019-02-15T08:26:30.211Z,0.60
2019-02-15T08:28:57.995Z,0.70
2019-02-15T08:31:25.616Z,0.70
2019-02-15T08:33:53.792Z,0.70
2019-02-15T08:36:21.153Z,0.80
2019-02-15T08:38:48.625Z,0.80
2019-02-15T08:41:16.167Z,0.90
2019-02-15T08:43:44.252Z,0.90
2019-02-15T08:46:11.635Z,0.90
2019-02-15T08:48:45.862Z,1.00
2019-02-15T08:51:09.483Z,1.10
2019-02-15T08:53:36.861Z,1.20
2019-02-15T08:56:04.502Z,1.30
2019-02-15T08:58:32.304Z,1.30
2019-02-15T09:01:00.008Z,1.40
2019-02-15T09:03:27.660Z,1.50
2019-02-15T09:05:55.917Z,1.60
2019-02-15T09:08:23.322Z,1.70
2019-02-15T09:10:51.090Z,1.70
2019-02-15T09:13:19.052Z,1.80
2019-02-15T09:15:46.796Z,1.90
2019-02-15T09:18:14.966Z,1.90
2019-02-15T09:20:42.871Z,2.00
2019-02-15T09:23:12.254Z,2.00
2019-02-15T09:25:40.109Z,2.10
2019-02-15T09:28:16.534Z,2.20
2019-02-15T09:30:47.028Z,2.20
2019-02-15T09:33:16.803Z,2.30
2019-02-15T09:35:44.462Z,2.40
2019-02-15T09:38:12.582Z,2.40
2019-02-15T09:40:40.047Z,2.50
2019-02-15T09:43:07.506Z,2.60
2019-02-15T09:45:35.002Z,2.70
2019-02-15T09:48:02.700Z,2.70
2019-02-15T09:50:30.610Z,2.80
2019-02-15T09:52:58.104Z,2.90
2019-02-15T09:55:25.556Z,2.90
2019-02-15T09:57:53.142Z,3.00
2019-02-15T10:00:20.622Z,3.00
2019-02-15T10:02:48.146Z,3.00
2019-02-15T10:05:17.258Z,3.20
2019-02-15T10:07:45.334Z,3.20
2019-02-15T10:10:13.380Z,3.20
2019-02-15T10:12:40.881Z,3.30
2019-02-15T10:15:08.838Z,3.30
2019-02-15T10:17:36.160Z,3.30
2019-02-15T10:20:04.212Z,3.40
2019-02-15T10:22:32.309Z,3.40
2019-02-15T10:25:01.113Z,3.50
2019-02-15T10:27:28.581Z,3.50
2019-02-15T10:29:56.024Z,3.50
2019-02-15T10:32:23.411Z,3.60
2019-02-15T10:34:50.788Z,3.60
2019-02-15T10:37:18.504Z,3.70
2019-02-15T10:39:46.002Z,3.70
2019-02-15T10:42:13.604Z,3.80
2019-02-15T10:44:41.090Z,3.90
2019-02-15T10:47:14.342Z,3.90
2019-02-15T10:49:38.513Z,4.00
2019-02-15T10:52:05.989Z,4.00
2019-02-15T10:54:33.445Z,4.10
2019-02-15T10:57:00.894Z,4.10
2019-02-15T10:59:28.637Z,4.20
2019-02-15T11:01:56.456Z,4.20
2019-02-15T11:04:24.060Z,4.30
2019-02-15T11:06:51.777Z,4.40
2019-02-15T11:09:19.264Z,4.40
2019-02-15T11:11:47.028Z,4.50
2019-02-15T11:14:14.764Z,4.50
2019-02-15T11:16:47.295Z,4.60
2019-02-15T11:19:11.428Z,4.70
2019-02-15T11:21:38.834Z,4.70
2019-02-15T11:24:06.678Z,4.80
2019-02-15T11:26:34.112Z,4.80
2019-02-15T11:29:01.447Z,4.90
2019-02-15T11:31:28.867Z,5.00
2019-02-15T11:33:56.598Z,5.10
2019-02-15T11:36:24.257Z,5.10
2019-02-15T11:38:52.883Z,5.20
2019-02-15T11:41:20.416Z,5.20
2019-02-15T11:43:48.278Z,5.30
2019-02-15T11:46:15.832Z,5.60
2019-02-15T11:48:43.572Z,5.60
2019-02-15T11:51:11.196Z,5.70
2019-02-15T11:53:38.722Z,5.70
2019-02-15T11:56:06.219Z,5.90
2019-02-15T11:58:33.757Z,5.90
2019-02-15T12:01:02.188Z,5.90
2019-02-15T12:03:29.570Z,5.90
2019-02-15T12:05:57.641Z,6.00
2019-02-15T12:08:25.229Z,6.00
2019-02-15T12:10:52.754Z,6.30
2019-02-15T12:13:20.389Z,6.50
2019-02-15T12:15:47.964Z,6.50
2019-02-15T12:18:15.362Z,6.50
2019-02-15T12:20:42.843Z,6.70
2019-02-15T12:23:10.534Z,6.60
2019-02-15T12:25:38.164Z,6.70
2019-02-15T12:28:05.548Z,6.80
2019-02-15T12:30:33.046Z,7.00
2019-02-15T12:33:00.786Z,7.10
2019-02-15T12:35:28.857Z,7.10
2019-02-15T12:37:56.671Z,7.30
2019-02-15T12:40:24.013Z,7.30
2019-02-15T12:42:51.779Z,7.30
2019-02-15T12:45:19.248Z,7.30
2019-02-15T12:47:47.315Z,7.40
2019-02-15T12:50:14.971Z,7.50
2019-02-15T12:52:42.389Z,7.50
2019-02-15T12:55:10.101Z,7.60
2019-02-15T12:57:37.636Z,7.60
2019-02-15T13:00:06.991Z,7.60
2019-02-15T13:02:34.822Z,7.70
2019-02-15T13:05:02.914Z,7.70
2019-02-15T13:07:31.767Z,7.80
2019-02-15T13:09:59.796Z,7.90
2019-02-15T13:12:27.514Z,8.00
2019-02-15T13:14:55.240Z,8.00
2019-02-15T13:17:24.730Z,8.10
2019-02-15T13:19:52.396Z,8.10
2019-02-15T13:28:56.657Z,8.30
2019-02-15T13:34:20.768Z,8.40
2019-02-15T13:36:48.182Z,8.50
2019-02-15T13:39:15.640Z,8.60
2019-02-15T13:41:43.312Z,8.60
2019-02-15T13:44:10.834Z,8.70
2019-02-15T13:46:39.456Z,8.90
2019-02-15T13:49:07.415Z,9.10
2019-02-15T13:51:35.168Z,9.00
2019-02-15T13:54:02.676Z,9.00
2019-02-15T13:56:30.379Z,9.00
2019-02-15T13:58:58.548Z,9.00
2019-02-15T14:01:26.005Z,9.00
2019-02-15T14:03:54.014Z,9.00
2019-02-15T14:06:21.696Z,9.00
2019-02-15T14:08:49.468Z,9.10
2019-02-15T14:11:16.988Z,9.10
2019-02-15T14:13:45.492Z,9.10
2019-02-15T14:16:12.894Z,9.10
2019-02-15T14:18:40.348Z,9.10
2019-02-15T14:21:08.075Z,9.10
2019-02-15T14:23:36.031Z,9.10
2019-02-15T14:26:03.352Z,9.10
2019-02-15T14:28:30.737Z,9.20
2019-02-15T14:30:58.056Z,9.10
2019-02-15T14:33:25.596Z,9.20
2019-02-15T14:35:52.981Z,9.30
2019-02-15T14:38:20.646Z,9.20
2019-02-15T14:40:48.549Z,9.30
2019-02-15T14:43:16.005Z,9.30
2019-02-15T14:45:43.548Z,9.30
2019-02-15T14:48:11.020Z,9.30
2019-02-15T14:50:38.903Z,9.30
2019-02-15T14:53:07.248Z,9.30
2019-02-15T14:55:35.062Z,9.40
2019-02-15T14:58:02.680Z,9.40
2019-02-15T15:00:30.433Z,9.40
2019-02-15T15:02:58.327Z,9.50
2019-02-15T15:05:25.858Z,9.50
2019-02-15T15:07:53.306Z,9.50
2019-02-15T15:10:21.598Z,9.60
2019-02-15T15:12:49.306Z,9.50
2019-02-15T15:15:17.193Z,9.50
2019-02-15T15:17:44.731Z,9.60
2019-02-15T15:20:12.424Z,9.60
2019-02-15T15:22:40.395Z,9.60
2019-02-15T15:25:08.997Z,9.60
2019-02-15T15:27:36.683Z,9.50
2019-02-15T15:30:04.774Z,9.50
2019-02-15T15:32:32.363Z,9.50
2019-02-15T15:35:00.221Z,9.50
2019-02-15T15:37:27.714Z,9.50
2019-02-15T15:39:55.546Z,9.50
2019-02-15T15:42:22.910Z,9.50
2019-02-15T15:44:50.425Z,9.50
2019-02-15T15:47:17.982Z,9.50
2019-02-15T15:49:46.227Z,9.50
2019-02-15T15:52:14.099Z,9.50
2019-02-15T15:54:42.268Z,9.50
2019-02-15T15:57:09.864Z,9.50
2019-02-15T15:59:37.766Z,9.50
2019-02-15T16:02:05.857Z,9.50
2019-02-15T16:04:33.838Z,9.50
2019-02-15T16:07:01.355Z,9.40
2019-02-15T16:09:28.953Z,9.50
2019-02-15T16:11:56.347Z,9.40
2019-02-15T16:14:24.932Z,9.40
2019-02-15T16:16:52.473Z,9.40
2019-02-15T16:19:20.136Z,9.40
2019-02-15T16:21:47.624Z,9.40
2019-02-15T16:24:14.970Z,9.30
2019-02-15T16:26:42.371Z,9.30
2019-02-15T16:29:09.872Z,9.30
2019-02-15T16:31:37.589Z,9.30
2019-02-15T16:34:05.317Z,9.20
2019-02-15T16:36:32.824Z,9.20
2019-02-15T16:39:00.990Z,9.20
2019-02-15T16:41:28.846Z,9.20
2019-02-15T16:43:56.307Z,9.20
2019-02-15T16:46:23.755Z,9.20
2019-02-15T16:48:51.548Z,9.20
2019-02-15T16:51:19.031Z,9.10
2019-02-15T16:53:46.764Z,9.10
2019-02-15T16:56:14.528Z,9.10
2019-02-15T16:58:42.286Z,9.10
2019-02-15T17:01:10.061Z,9.00
2019-02-15T17:03:37.558Z,9.00
2019-02-15T17:06:05.083Z,8.90
2019-02-15T17:08:33.457Z,8.90
2019-02-15T17:11:01.103Z,8.70
2019-02-15T17:13:28.490Z,8.70
2019-02-15T17:15:55.910Z,8.60
2019-02-15T17:18:23.234Z,8.50
2019-02-15T17:20:50.984Z,8.50
2019-02-15T17:23:18.736Z,8.40
2019-02-15T17:25:46.346Z,8.30
2019-02-15T17:28:14.191Z,8.20
2019-02-15T17:30:41.659Z,8.10
2019-02-15T17:33:10.148Z,8.20
2019-02-15T17:35:38.219Z,8.10
2019-02-15T17:38:05.786Z,8.20
2019-02-15T17:40:33.990Z,8.10
2019-02-15T17:43:02.010Z,8.00
2019-02-15T17:45:31.504Z,7.90
2019-02-15T17:48:00.735Z,7.80
2019-02-15T17:50:28.273Z,7.70
2019-02-15T17:52:55.865Z,7.60
2019-02-15T17:55:23.782Z,7.60
2019-02-15T17:57:51.323Z,7.50
2019-02-15T18:00:21.212Z,7.40
2019-02-15T18:02:48.794Z,7.20
2019-02-15T18:05:16.310Z,7.10
2019-02-15T18:07:46.115Z,7.20
2019-02-15T18:10:13.891Z,7.20
2019-02-15T18:12:41.658Z,7.20
2019-02-15T18:15:09.135Z,7.10
2019-02-15T18:17:36.620Z,6.90
2019-02-15T18:20:04.319Z,6.70
2019-02-15T18:22:31.671Z,6.60
2019-02-15T18:24:59.758Z,6.50
2019-02-15T18:27:27.810Z,6.40
2019-02-15T18:29:55.411Z,6.20
2019-02-15T18:32:23.265Z,6.10
2019-02-15T18:34:51.135Z,6.00
2019-02-15T18:37:20.329Z,6.00
2019-02-15T18:39:47.686Z,5.90
2019-02-15T18:42:15.502Z,5.80
2019-02-15T18:44:43.001Z,5.70
2019-02-15T18:47:10.532Z,5.60
2019-02-15T18:49:38.240Z,5.60
2019-02-15T18:52:06.098Z,5.60
2019-02-15T18:54:34.160Z,5.70
2019-02-15T18:57:01.743Z,5.60
2019-02-15T18:59:29.688Z,5.60
2019-02-15T19:01:58.211Z,5.60
2019-02-15T19:04:25.735Z,5.50
2019-02-15T19:06:53.547Z,5.40
2019-02-15T19:09:20.949Z,5.40
2019-02-15T19:11:48.516Z,5.30
2019-02-15T19:14:15.903Z,5.30
2019-02-15T19:16:43.313Z,5.30
2019-02-15T19:19:10.855Z,5.30
2019-02-15T19:21:38.352Z,5.30
2019-02-15T19:24:06.014Z,5.40
2019-02-15T19:26:34.290Z,5.50
2019-02-15T19:29:02.903Z,5.60
2019-02-15T19:31:30.524Z,5.60
2019-02-15T19:33:58.311Z,5.60
2019-02-15T19:36:26.066Z,5.60
2019-02-15T19:38:53.427Z,5.60
2019-02-15T19:41:20.988Z,5.60
2019-02-15T19:43:48.629Z,5.60
2019-02-15T19:46:16.288Z,5.30
2019-02-15T19:48:44.380Z,5.20
2019-02-15T19:51:13.631Z,5.00
2019-02-15T19:53:41.254Z,5.00
2019-02-15T19:56:08.929Z,5.00
2019-02-15T19:58:36.502Z,5.20
2019-02-15T20:01:04.095Z,5.20
2019-02-15T20:03:32.317Z,5.20
2019-02-15T20:06:00.304Z,4.90
2019-02-15T20:08:28.222Z,5.00
2019-02-15T20:10:55.908Z,4.80
2019-02-15T20:13:23.610Z,4.80
2019-02-15T20:15:51.121Z,4.90
2019-02-15T20:18:18.684Z,4.80
2019-02-15T20:20:47.030Z,4.70
2019-02-15T20:23:14.873Z,4.50
2019-02-15T20:25:42.521Z,4.50
2019-02-15T20:28:14.052Z,4.40
2019-02-15T20:30:39.741Z,4.20
2019-02-15T20:33:07.176Z,4.00
2019-02-15T20:35:35.600Z,4.00
2019-02-15T20:38:03.581Z,4.00
2019-02-15T20:40:31.717Z,3.90
2019-02-15T20:42:59.711Z,4.00
2019-02-15T20:45:27.896Z,3.90
2019-02-15T20:47:56.032Z,3.90
2019-02-15T20:50:24.024Z,3.80
2019-02-15T20:52:51.615Z,3.80
2019-02-15T20:55:19.649Z,3.90
2019-02-15T20:57:47.266Z,4.00
2019-02-15T21:00:25.003Z,4.10
2019-02-15T21:02:52.760Z,4.20
2019-02-15T21:05:20.871Z,4.10
2019-02-15T21:07:49.920Z,3.80
2019-02-15T21:10:18.371Z,3.70
2019-02-15T21:12:46.104Z,3.70
2019-02-15T21:15:13.894Z,3.80
2019-02-15T21:17:41.782Z,3.80
2019-02-15T21:20:10.148Z,3.80
2019-02-15T21:22:38.294Z,3.70
2019-02-15T21:25:07.141Z,3.60
2019-02-15T21:27:34.823Z,3.60
2019-02-15T21:30:02.444Z,3.50
2019-02-15T21:32:30.514Z,3.50
2019-02-15T21:34:58.268Z,3.50
2019-02-15T21:37:25.942Z,3.50
2019-02-15T21:39:53.428Z,3.40
2019-02-15T21:42:20.855Z,3.40
2019-02-15T21:44:48.219Z,3.40
2019-02-15T21:47:15.871Z,3.30
2019-02-15T21:49:43.413Z,3.30
2019-02-15T21:52:11.104Z,3.30
2019-02-15T21:54:38.440Z,3.20
2019-02-15T21:57:05.800Z,3.20
2019-02-15T21:59:33.218Z,3.10
2019-02-15T22:02:00.680Z,3.10
2019-02-15T22:04:28.486Z,3.10
2019-02-15T22:06:56.559Z,3.00
2019-02-15T22:09:24.332Z,3.10
2019-02-15T22:11:52.188Z,3.10
2019-02-15T22:14:19.874Z,3.20
2019-02-15T22:16:47.715Z,3.10
2019-02-15T22:19:15.135Z,3.20
2019-02-15T22:21:42.646Z,3.20
2019-02-15T22:24:10.038Z,3.30
2019-02-15T22:26:37.942Z,3.30
2019-02-15T22:29:05.610Z,3.20
2019-02-15T22:31:33.366Z,3.20
2019-02-15T22:34:00.855Z,3.40
2019-02-15T22:36:28.393Z,3.10
2019-02-15T22:38:55.932Z,3.00
2019-02-15T22:41:23.322Z,3.10
2019-02-15T22:43:50.882Z,2.90
2019-02-15T22:46:19.130Z,2.70
2019-02-15T22:48:46.485Z,2.70
2019-02-15T22:51:13.983Z,2.70
2019-02-15T22:53:41.387Z,2.80
2019-02-15T22:56:09.045Z,2.90
2019-02-15T22:58:36.741Z,2.70
2019-02-15T23:01:08.039Z,2.70
2019-02-15T23:03:36.166Z,2.60
2019-02-15T23:06:03.894Z,2.60
2019-02-15T23:08:32.472Z,2.60
2019-02-15T23:10:59.832Z,2.60
2019-02-15T23:13:27.322Z,2.50
2019-02-15T23:15:54.955Z,2.40
2019-02-15T23:18:22.688Z,2.40
2019-02-15T23:20:50.096Z,2.50
2019-02-15T23:23:17.753Z,2.50
2019-02-15T23:25:45.105Z,2.40
2019-02-15T23:28:12.469Z,2.30
2019-02-15T23:30:40.158Z,2.40
2019-02-15T23:33:07.667Z,2.30
2019-02-15T23:35:34.993Z,2.40
2019-02-15T23:38:02.499Z,2.40
2019-02-15T23:40:30.006Z,2.50
2019-02-15T23:42:57.924Z,2.60
2019-02-15T23:45:25.589Z,2.60
2019-02-15T23:47:52.964Z,2.60
2019-02-15T23:50:20.520Z,2.70
2019-02-15T23:52:48.069Z,2.70
2019-02-15T23:55:15.599Z,2.70
2019-02-15T23:57:43.376Z,2.80
